sensor_id;sensor_type;location;lat;lon;timestamp;P1;durP1;ratioP1;P2;durP2;ratioP2
43793;SDS011;29414;44.798;20.366;2023-04-28T00:02:01;25.33;;;17.07;;
43793;SDS011;29414;44.798;20.366;2023-04-28T00:06:02;30.40;;;18.50;;
43793;SDS011;29414;44.798;20.366;2023-04-28T00:10:03;29.03;;;17.07;;
43793;SDS011;29414;44.798;20.366;2023-04-28T00:14:03;22.70;;;15.27;;
43793;SDS011;29414;44.798;20.366;2023-04-28T00:18:04;39.80;;;15.13;;
43793;SDS011;29414;44.798;20.366;2023-04-28T00:22:04;24.17;;;14.70;;
43793;SDS011;29414;44.798;20.366;2023-04-28T00:26:05;18.77;;;13.60;;
43793;SDS011;29414;44.798;20.366;2023-04-28T00:30:05;25.53;;;14.00;;
43793;SDS011;29414;44.798;20.366;2023-04-28T00:34:06;23.53;;;14.53;;
43793;SDS011;29414;44.798;20.366;2023-04-28T00:38:06;19.63;;;12.87;;
43793;SDS011;29414;44.798;20.366;2023-04-28T00:42:09;20.43;;;12.23;;
43793;SDS011;29414;44.798;20.366;2023-04-28T00:46:10;23.13;;;14.27;;
43793;SDS011;29414;44.798;20.366;2023-04-28T00:50:10;19.43;;;12.80;;
43793;SDS011;29414;44.798;20.366;2023-04-28T00:54:14;20.27;;;13.47;;
43793;SDS011;29414;44.798;20.366;2023-04-28T00:58:14;21.80;;;12.87;;
43793;SDS011;29414;44.798;20.366;2023-04-28T01:02:15;19.87;;;12.80;;
43793;SDS011;29414;44.798;20.366;2023-04-28T01:06:17;19.83;;;14.23;;
43793;SDS011;29414;44.798;20.366;2023-04-28T01:10:18;23.83;;;12.90;;
43793;SDS011;29414;44.798;20.366;2023-04-28T01:14:18;18.43;;;11.90;;
43793;SDS011;29414;44.798;20.366;2023-04-28T01:18:19;18.03;;;9.93;;
43793;SDS011;29414;44.798;20.366;2023-04-28T01:22:19;14.10;;;9.47;;
43793;SDS011;29414;44.798;20.366;2023-04-28T01:26:19;15.57;;;10.23;;
43793;SDS011;29414;44.798;20.366;2023-04-28T01:30:20;14.63;;;10.40;;
43793;SDS011;29414;44.798;20.366;2023-04-28T01:34:21;13.10;;;8.67;;
43793;SDS011;29414;44.798;20.366;2023-04-28T01:38:21;15.87;;;10.03;;
43793;SDS011;29414;44.798;20.366;2023-04-28T01:42:21;12.93;;;9.67;;
43793;SDS011;29414;44.798;20.366;2023-04-28T01:46:21;12.53;;;8.47;;
43793;SDS011;29414;44.798;20.366;2023-04-28T01:50:22;16.27;;;10.57;;
43793;SDS011;29414;44.798;20.366;2023-04-28T01:54:22;16.47;;;10.63;;
43793;SDS011;29414;44.798;20.366;2023-04-28T01:58:22;15.17;;;10.23;;
43793;SDS011;29414;44.798;20.366;2023-04-28T02:02:23;16.33;;;11.10;;
43793;SDS011;29414;44.798;20.366;2023-04-28T02:06:23;16.77;;;10.15;;
43793;SDS011;29414;44.798;20.366;2023-04-28T02:10:23;17.50;;;9.57;;
43793;SDS011;29414;44.798;20.366;2023-04-28T02:14:23;10.77;;;8.77;;
43793;SDS011;29414;44.798;20.366;2023-04-28T02:18:24;11.93;;;8.17;;
43793;SDS011;29414;44.798;20.366;2023-04-28T02:22:24;13.33;;;9.00;;
43793;SDS011;29414;44.798;20.366;2023-04-28T02:26:24;13.97;;;8.97;;
43793;SDS011;29414;44.798;20.366;2023-04-28T02:30:25;12.37;;;8.80;;
43793;SDS011;29414;44.798;20.366;2023-04-28T02:34:25;20.07;;;10.20;;
43793;SDS011;29414;44.798;20.366;2023-04-28T02:38:25;16.67;;;10.20;;
43793;SDS011;29414;44.798;20.366;2023-04-28T02:42:26;14.87;;;10.17;;
43793;SDS011;29414;44.798;20.366;2023-04-28T02:46:26;15.43;;;11.17;;
43793;SDS011;29414;44.798;20.366;2023-04-28T02:50:27;14.47;;;11.00;;
43793;SDS011;29414;44.798;20.366;2023-04-28T02:54:27;12.47;;;10.70;;
43793;SDS011;29414;44.798;20.366;2023-04-28T02:58:27;12.17;;;10.87;;
43793;SDS011;29414;44.798;20.366;2023-04-28T03:02:27;17.20;;;10.40;;
43793;SDS011;29414;44.798;20.366;2023-04-28T03:06:28;20.63;;;13.70;;
43793;SDS011;29414;44.798;20.366;2023-04-28T03:10:28;23.50;;;15.53;;
43793;SDS011;29414;44.798;20.366;2023-04-28T03:14:31;15.03;;;11.60;;
43793;SDS011;29414;44.798;20.366;2023-04-28T03:18:31;16.63;;;12.03;;
43793;SDS011;29414;44.798;20.366;2023-04-28T03:22:31;16.60;;;10.70;;
43793;SDS011;29414;44.798;20.366;2023-04-28T03:26:32;15.73;;;12.00;;
43793;SDS011;29414;44.798;20.366;2023-04-28T03:30:36;17.93;;;11.33;;
43793;SDS011;29414;44.798;20.366;2023-04-28T03:34:36;17.10;;;12.50;;
43793;SDS011;29414;44.798;20.366;2023-04-28T03:38:36;13.97;;;11.43;;
43793;SDS011;29414;44.798;20.366;2023-04-28T03:42:37;15.60;;;12.70;;
43793;SDS011;29414;44.798;20.366;2023-04-28T03:46:37;17.57;;;14.17;;
43793;SDS011;29414;44.798;20.366;2023-04-28T03:50:37;14.77;;;13.13;;
43793;SDS011;29414;44.798;20.366;2023-04-28T03:54:39;12.90;;;11.37;;
43793;SDS011;29414;44.798;20.366;2023-04-28T03:58:40;16.93;;;11.73;;
43793;SDS011;29414;44.798;20.366;2023-04-28T04:02:40;16.57;;;12.90;;
43793;SDS011;29414;44.798;20.366;2023-04-28T04:06:41;19.17;;;13.47;;
43793;SDS011;29414;44.798;20.366;2023-04-28T04:10:41;19.67;;;12.93;;
43793;SDS011;29414;44.798;20.366;2023-04-28T04:14:41;20.02;;;14.70;;
43793;SDS011;29414;44.798;20.366;2023-04-28T04:18:42;18.13;;;13.00;;
43793;SDS011;29414;44.798;20.366;2023-04-28T04:22:42;17.10;;;10.40;;
43793;SDS011;29414;44.798;20.366;2023-04-28T04:26:43;19.37;;;11.90;;
43793;SDS011;29414;44.798;20.366;2023-04-28T04:30:43;14.80;;;10.80;;
43793;SDS011;29414;44.798;20.366;2023-04-28T04:34:43;12.03;;;10.10;;
43793;SDS011;29414;44.798;20.366;2023-04-28T04:38:44;9.83;;;8.57;;
43793;SDS011;29414;44.798;20.366;2023-04-28T04:42:44;13.73;;;9.70;;
43793;SDS011;29414;44.798;20.366;2023-04-28T04:46:45;17.53;;;10.40;;
43793;SDS011;29414;44.798;20.366;2023-04-28T04:50:46;19.40;;;11.37;;
43793;SDS011;29414;44.798;20.366;2023-04-28T04:54:46;16.40;;;10.67;;
43793;SDS011;29414;44.798;20.366;2023-04-28T04:58:46;13.43;;;9.60;;
43793;SDS011;29414;44.798;20.366;2023-04-28T05:02:47;31.17;;;23.53;;
43793;SDS011;29414;44.798;20.366;2023-04-28T05:06:50;16.13;;;11.43;;
43793;SDS011;29414;44.798;20.366;2023-04-28T05:10:50;14.77;;;10.97;;
43793;SDS011;29414;44.798;20.366;2023-04-28T05:14:50;17.37;;;11.53;;
43793;SDS011;29414;44.798;20.366;2023-04-28T05:18:51;20.13;;;18.13;;
43793;SDS011;29414;44.798;20.366;2023-04-28T05:22:52;17.20;;;10.83;;
43793;SDS011;29414;44.798;20.366;2023-04-28T05:26:52;15.63;;;11.20;;
43793;SDS011;29414;44.798;20.366;2023-04-28T05:30:53;12.43;;;10.00;;
43793;SDS011;29414;44.798;20.366;2023-04-28T05:34:53;17.57;;;11.40;;
43793;SDS011;29414;44.798;20.366;2023-04-28T05:38:53;19.52;;;11.23;;
43793;SDS011;29414;44.798;20.366;2023-04-28T05:42:53;17.47;;;13.87;;
43793;SDS011;29414;44.798;20.366;2023-04-28T05:46:54;18.40;;;13.33;;
43793;SDS011;29414;44.798;20.366;2023-04-28T05:50:54;16.70;;;11.30;;
43793;SDS011;29414;44.798;20.366;2023-04-28T05:54:55;13.27;;;8.37;;
43793;SDS011;29414;44.798;20.366;2023-04-28T05:58:55;21.47;;;7.30;;
43793;SDS011;29414;44.798;20.366;2023-04-28T06:02:55;11.37;;;7.00;;
43793;SDS011;29414;44.798;20.366;2023-04-28T06:06:55;15.17;;;7.20;;
43793;SDS011;29414;44.798;20.366;2023-04-28T06:10:56;11.43;;;6.57;;
43793;SDS011;29414;44.798;20.366;2023-04-28T06:14:56;14.67;;;10.13;;
43793;SDS011;29414;44.798;20.366;2023-04-28T06:18:56;21.77;;;9.27;;
43793;SDS011;29414;44.798;20.366;2023-04-28T06:22:57;9.87;;;6.67;;
43793;SDS011;29414;44.798;20.366;2023-04-28T06:26:57;9.43;;;5.87;;
43793;SDS011;29414;44.798;20.366;2023-04-28T06:30:57;11.07;;;5.93;;
43793;SDS011;29414;44.798;20.366;2023-04-28T06:34:58;12.50;;;5.50;;
43793;SDS011;29414;44.798;20.366;2023-04-28T06:38:59;9.83;;;5.40;;
43793;SDS011;29414;44.798;20.366;2023-04-28T06:42:59;13.20;;;4.63;;
43793;SDS011;29414;44.798;20.366;2023-04-28T06:47:00;7.70;;;3.97;;
43793;SDS011;29414;44.798;20.366;2023-04-28T06:51:00;10.60;;;4.33;;
43793;SDS011;29414;44.798;20.366;2023-04-28T06:55:01;9.23;;;3.37;;
43793;SDS011;29414;44.798;20.366;2023-04-28T06:59:01;8.30;;;3.23;;
43793;SDS011;29414;44.798;20.366;2023-04-28T07:03:02;11.00;;;3.37;;
43793;SDS011;29414;44.798;20.366;2023-04-28T07:07:02;4.23;;;3.33;;
43793;SDS011;29414;44.798;20.366;2023-04-28T07:11:07;11.50;;;3.70;;
43793;SDS011;29414;44.798;20.366;2023-04-28T07:15:07;8.60;;;3.10;;
43793;SDS011;29414;44.798;20.366;2023-04-28T07:19:08;6.27;;;2.47;;
43793;SDS011;29414;44.798;20.366;2023-04-28T07:23:08;5.20;;;2.97;;
43793;SDS011;29414;44.798;20.366;2023-04-28T07:27:09;11.93;;;3.53;;
43793;SDS011;29414;44.798;20.366;2023-04-28T07:31:09;6.90;;;2.50;;
43793;SDS011;29414;44.798;20.366;2023-04-28T07:35:09;4.57;;;2.10;;
43793;SDS011;29414;44.798;20.366;2023-04-28T07:39:10;4.80;;;2.20;;
43793;SDS011;29414;44.798;20.366;2023-04-28T07:43:10;11.43;;;2.70;;
43793;SDS011;29414;44.798;20.366;2023-04-28T07:47:10;6.73;;;2.40;;
43793;SDS011;29414;44.798;20.366;2023-04-28T07:51:11;4.40;;;2.23;;
43793;SDS011;29414;44.798;20.366;2023-04-28T07:55:11;5.20;;;2.53;;
43793;SDS011;29414;44.798;20.366;2023-04-28T07:59:11;7.70;;;2.70;;
43793;SDS011;29414;44.798;20.366;2023-04-28T08:03:12;3.80;;;2.30;;
43793;SDS011;29414;44.798;20.366;2023-04-28T08:07:12;3.53;;;1.93;;
43793;SDS011;29414;44.798;20.366;2023-04-28T08:11:12;6.33;;;2.07;;
43793;SDS011;29414;44.798;20.366;2023-04-28T08:15:13;4.87;;;2.50;;
43793;SDS011;29414;44.798;20.366;2023-04-28T08:19:13;6.22;;;2.47;;
43793;SDS011;29414;44.798;20.366;2023-04-28T08:23:13;5.35;;;2.15;;
43793;SDS011;29414;44.798;20.366;2023-04-28T08:27:13;3.85;;;2.22;;
43793;SDS011;29414;44.798;20.366;2023-04-28T08:31:14;4.07;;;1.67;;
43793;SDS011;29414;44.798;20.366;2023-04-28T08:35:14;3.85;;;1.20;;
43793;SDS011;29414;44.798;20.366;2023-04-28T08:39:15;3.67;;;1.27;;
43793;SDS011;29414;44.798;20.366;2023-04-28T08:43:16;2.90;;;1.85;;
43793;SDS011;29414;44.798;20.366;2023-04-28T08:47:16;9.75;;;2.40;;
43793;SDS011;29414;44.798;20.366;2023-04-28T08:51:24;10.75;;;2.28;;
43793;SDS011;29414;44.798;20.366;2023-04-28T08:55:25;11.95;;;1.80;;
43793;SDS011;29414;44.798;20.366;2023-04-28T08:59:26;5.25;;;1.92;;
43793;SDS011;29414;44.798;20.366;2023-04-28T09:03:26;9.40;;;2.03;;
43793;SDS011;29414;44.798;20.366;2023-04-28T09:07:27;5.63;;;2.30;;
43793;SDS011;29414;44.798;20.366;2023-04-28T09:11:27;7.78;;;2.05;;
43793;SDS011;29414;44.798;20.366;2023-04-28T09:15:35;5.60;;;1.75;;
43793;SDS011;29414;44.798;20.366;2023-04-28T09:19:36;1.98;;;0.98;;
43793;SDS011;29414;44.798;20.366;2023-04-28T09:23:46;3.50;;;2.08;;
43793;SDS011;29414;44.798;20.366;2023-04-28T09:27:50;6.10;;;1.50;;
43793;SDS011;29414;44.798;20.366;2023-04-28T09:31:51;4.25;;;1.70;;
43793;SDS011;29414;44.798;20.366;2023-04-28T09:35:52;5.22;;;1.55;;
43793;SDS011;29414;44.798;20.366;2023-04-28T09:39:53;5.35;;;2.00;;
43793;SDS011;29414;44.798;20.366;2023-04-28T09:43:53;4.85;;;1.92;;
43793;SDS011;29414;44.798;20.366;2023-04-28T09:47:56;3.13;;;1.80;;
43793;SDS011;29414;44.798;20.366;2023-04-28T09:52:11;7.25;;;1.85;;
43793;SDS011;29414;44.798;20.366;2023-04-28T09:56:11;3.78;;;1.50;;
43793;SDS011;29414;44.798;20.366;2023-04-28T10:00:12;5.60;;;2.05;;
43793;SDS011;29414;44.798;20.366;2023-04-28T10:04:13;5.38;;;1.80;;
43793;SDS011;29414;44.798;20.366;2023-04-28T10:08:14;3.15;;;1.90;;
43793;SDS011;29414;44.798;20.366;2023-04-28T10:12:21;3.30;;;1.63;;
43793;SDS011;29414;44.798;20.366;2023-04-28T10:16:22;2.75;;;1.90;;
43793;SDS011;29414;44.798;20.366;2023-04-28T10:20:23;5.88;;;2.45;;
43793;SDS011;29414;44.798;20.366;2023-04-28T10:24:25;3.28;;;1.45;;
43793;SDS011;29414;44.798;20.366;2023-04-28T10:28:28;2.70;;;1.45;;
43793;SDS011;29414;44.798;20.366;2023-04-28T10:32:28;8.02;;;2.03;;
43793;SDS011;29414;44.798;20.366;2023-04-28T10:40:45;3.85;;;1.73;;
43793;SDS011;29414;44.798;20.366;2023-04-28T10:44:46;4.55;;;2.03;;
43793;SDS011;29414;44.798;20.366;2023-04-28T10:48:54;4.20;;;1.50;;
43793;SDS011;29414;44.798;20.366;2023-04-28T10:52:55;4.15;;;1.55;;
43793;SDS011;29414;44.798;20.366;2023-04-28T10:57:14;5.32;;;2.00;;
43793;SDS011;29414;44.798;20.366;2023-04-28T11:05:18;5.30;;;2.67;;
43793;SDS011;29414;44.798;20.366;2023-04-28T11:13:26;2.20;;;1.67;;
43793;SDS011;29414;44.798;20.366;2023-04-28T11:17:37;4.20;;;2.13;;
43793;SDS011;29414;44.798;20.366;2023-04-28T11:21:38;4.15;;;1.98;;
43793;SDS011;29414;44.798;20.366;2023-04-28T11:25:54;4.13;;;2.08;;
43793;SDS011;29414;44.798;20.366;2023-04-28T11:29:55;5.70;;;2.90;;
43793;SDS011;29414;44.798;20.366;2023-04-28T11:33:57;8.50;;;1.88;;
43793;SDS011;29414;44.798;20.366;2023-04-28T11:38:01;7.07;;;2.30;;
43793;SDS011;29414;44.798;20.366;2023-04-28T11:42:11;6.35;;;2.10;;
43793;SDS011;29414;44.798;20.366;2023-04-28T11:46:21;5.10;;;2.28;;
43793;SDS011;29414;44.798;20.366;2023-04-28T11:50:34;7.68;;;2.92;;
43793;SDS011;29414;44.798;20.366;2023-04-28T11:54:34;3.63;;;1.55;;
43793;SDS011;29414;44.798;20.366;2023-04-28T11:58:36;4.72;;;2.00;;
43793;SDS011;29414;44.798;20.366;2023-04-28T12:02:36;3.63;;;1.65;;
43793;SDS011;29414;44.798;20.366;2023-04-28T12:06:38;5.32;;;2.70;;
43793;SDS011;29414;44.798;20.366;2023-04-28T12:10:38;6.88;;;2.75;;
43793;SDS011;29414;44.798;20.366;2023-04-28T12:14:58;4.54;;;2.32;;
43793;SDS011;29414;44.798;20.366;2023-04-28T12:18:58;3.70;;;1.95;;
43793;SDS011;29414;44.798;20.366;2023-04-28T12:23:05;6.03;;;2.33;;
43793;SDS011;29414;44.798;20.366;2023-04-28T12:27:16;6.70;;;2.83;;
43793;SDS011;29414;44.798;20.366;2023-04-28T12:31:17;3.70;;;2.05;;
43793;SDS011;29414;44.798;20.366;2023-04-28T12:35:19;5.93;;;2.35;;
43793;SDS011;29414;44.798;20.366;2023-04-28T12:39:20;5.50;;;2.15;;
43793;SDS011;29414;44.798;20.366;2023-04-28T12:43:22;5.75;;;2.40;;
43793;SDS011;29414;44.798;20.366;2023-04-28T12:47:23;8.48;;;1.88;;
43793;SDS011;29414;44.798;20.366;2023-04-28T12:51:23;4.00;;;2.13;;
43793;SDS011;29414;44.798;20.366;2023-04-28T12:55:24;9.38;;;2.67;;
43793;SDS011;29414;44.798;20.366;2023-04-28T12:59:24;5.00;;;1.92;;
43793;SDS011;29414;44.798;20.366;2023-04-28T13:03:25;5.60;;;2.40;;
43793;SDS011;29414;44.798;20.366;2023-04-28T13:07:26;3.65;;;2.13;;
43793;SDS011;29414;44.798;20.366;2023-04-28T13:11:26;4.65;;;2.00;;
43793;SDS011;29414;44.798;20.366;2023-04-28T13:15:27;6.22;;;2.88;;
43793;SDS011;29414;44.798;20.366;2023-04-28T13:19:29;6.38;;;2.55;;
43793;SDS011;29414;44.798;20.366;2023-04-28T13:23:30;5.35;;;2.40;;
43793;SDS011;29414;44.798;20.366;2023-04-28T13:27:30;9.02;;;2.75;;
43793;SDS011;29414;44.798;20.366;2023-04-28T13:31:32;3.58;;;2.30;;
43793;SDS011;29414;44.798;20.366;2023-04-28T13:35:32;10.23;;;2.88;;
43793;SDS011;29414;44.798;20.366;2023-04-28T13:39:32;4.00;;;1.98;;
43793;SDS011;29414;44.798;20.366;2023-04-28T13:43:33;19.95;;;2.95;;
43793;SDS011;29414;44.798;20.366;2023-04-28T13:47:33;4.18;;;2.35;;
43793;SDS011;29414;44.798;20.366;2023-04-28T13:51:34;4.55;;;1.85;;
43793;SDS011;29414;44.798;20.366;2023-04-28T13:55:34;5.43;;;2.30;;
43793;SDS011;29414;44.798;20.366;2023-04-28T13:59:34;6.18;;;1.80;;
43793;SDS011;29414;44.798;20.366;2023-04-28T14:03:35;5.63;;;2.13;;
43793;SDS011;29414;44.798;20.366;2023-04-28T14:07:35;4.85;;;2.45;;
43793;SDS011;29414;44.798;20.366;2023-04-28T14:11:35;7.95;;;2.30;;
43793;SDS011;29414;44.798;20.366;2023-04-28T14:15:36;9.32;;;5.32;;
43793;SDS011;29414;44.798;20.366;2023-04-28T14:19:36;31.83;;;3.67;;
43793;SDS011;29414;44.798;20.366;2023-04-28T14:23:36;3.53;;;1.42;;
43793;SDS011;29414;44.798;20.366;2023-04-28T14:27:37;4.13;;;1.80;;
43793;SDS011;29414;44.798;20.366;2023-04-28T14:31:37;5.53;;;2.03;;
43793;SDS011;29414;44.798;20.366;2023-04-28T14:35:38;4.82;;;1.77;;
43793;SDS011;29414;44.798;20.366;2023-04-28T14:39:39;5.18;;;2.55;;
43793;SDS011;29414;44.798;20.366;2023-04-28T14:43:39;4.90;;;2.00;;
43793;SDS011;29414;44.798;20.366;2023-04-28T14:47:40;4.88;;;2.13;;
43793;SDS011;29414;44.798;20.366;2023-04-28T14:51:40;3.75;;;2.22;;
43793;SDS011;29414;44.798;20.366;2023-04-28T14:55:40;5.50;;;2.83;;
43793;SDS011;29414;44.798;20.366;2023-04-28T14:59:41;7.13;;;2.10;;
43793;SDS011;29414;44.798;20.366;2023-04-28T15:03:41;4.47;;;2.17;;
43793;SDS011;29414;44.798;20.366;2023-04-28T15:07:42;6.78;;;2.72;;
43793;SDS011;29414;44.798;20.366;2023-04-28T15:11:42;7.95;;;2.70;;
43793;SDS011;29414;44.798;20.366;2023-04-28T15:15:42;5.05;;;2.70;;
43793;SDS011;29414;44.798;20.366;2023-04-28T15:19:43;6.06;;;2.54;;
43793;SDS011;29414;44.798;20.366;2023-04-28T15:23:43;9.70;;;2.92;;
43793;SDS011;29414;44.798;20.366;2023-04-28T15:27:43;7.07;;;2.53;;
43793;SDS011;29414;44.798;20.366;2023-04-28T15:31:43;10.18;;;2.45;;
43793;SDS011;29414;44.798;20.366;2023-04-28T15:35:44;7.10;;;2.20;;
43793;SDS011;29414;44.798;20.366;2023-04-28T15:39:45;5.18;;;2.20;;
43793;SDS011;29414;44.798;20.366;2023-04-28T15:43:45;4.95;;;2.28;;
43793;SDS011;29414;44.798;20.366;2023-04-28T15:47:46;3.53;;;2.00;;
43793;SDS011;29414;44.798;20.366;2023-04-28T15:51:47;7.10;;;1.90;;
43793;SDS011;29414;44.798;20.366;2023-04-28T15:55:47;6.93;;;2.33;;
43793;SDS011;29414;44.798;20.366;2023-04-28T15:59:47;5.55;;;1.90;;
43793;SDS011;29414;44.798;20.366;2023-04-28T16:03:48;7.20;;;3.22;;
43793;SDS011;29414;44.798;20.366;2023-04-28T16:07:48;7.50;;;2.97;;
43793;SDS011;29414;44.798;20.366;2023-04-28T16:11:48;7.32;;;2.83;;
43793;SDS011;29414;44.798;20.366;2023-04-28T16:15:49;6.55;;;2.80;;
43793;SDS011;29414;44.798;20.366;2023-04-28T16:19:50;10.20;;;3.08;;
43793;SDS011;29414;44.798;20.366;2023-04-28T16:23:51;7.50;;;2.30;;
43793;SDS011;29414;44.798;20.366;2023-04-28T16:27:51;7.00;;;3.13;;
43793;SDS011;29414;44.798;20.366;2023-04-28T16:31:52;5.30;;;2.70;;
43793;SDS011;29414;44.798;20.366;2023-04-28T16:35:53;3.67;;;2.38;;
43793;SDS011;29414;44.798;20.366;2023-04-28T16:39:54;5.03;;;2.53;;
43793;SDS011;29414;44.798;20.366;2023-04-28T16:43:54;8.38;;;2.72;;
43793;SDS011;29414;44.798;20.366;2023-04-28T16:47:54;9.70;;;2.84;;
43793;SDS011;29414;44.798;20.366;2023-04-28T16:51:58;6.97;;;2.53;;
43793;SDS011;29414;44.798;20.366;2023-04-28T16:55:59;3.15;;;2.60;;
43793;SDS011;29414;44.798;20.366;2023-04-28T16:59:59;5.22;;;3.10;;
43793;SDS011;29414;44.798;20.366;2023-04-28T17:03:59;8.88;;;2.95;;
43793;SDS011;29414;44.798;20.366;2023-04-28T17:08:01;8.15;;;3.05;;
43793;SDS011;29414;44.798;20.366;2023-04-28T17:12:02;8.25;;;3.20;;
43793;SDS011;29414;44.798;20.366;2023-04-28T17:16:02;10.00;;;2.65;;
43793;SDS011;29414;44.798;20.366;2023-04-28T17:20:03;5.05;;;2.72;;
43793;SDS011;29414;44.798;20.366;2023-04-28T17:24:03;9.00;;;3.40;;
43793;SDS011;29414;44.798;20.366;2023-04-28T17:28:04;7.50;;;3.08;;
43793;SDS011;29414;44.798;20.366;2023-04-28T17:32:04;8.30;;;2.88;;
43793;SDS011;29414;44.798;20.366;2023-04-28T17:36:04;4.82;;;2.40;;
43793;SDS011;29414;44.798;20.366;2023-04-28T17:40:06;4.95;;;2.80;;
43793;SDS011;29414;44.798;20.366;2023-04-28T17:44:07;5.22;;;3.33;;
43793;SDS011;29414;44.798;20.366;2023-04-28T17:48:08;4.90;;;3.03;;
43793;SDS011;29414;44.798;20.366;2023-04-28T17:52:08;5.95;;;3.35;;
43793;SDS011;29414;44.798;20.366;2023-04-28T17:56:08;6.57;;;3.30;;
43793;SDS011;29414;44.798;20.366;2023-04-28T18:00:09;9.38;;;3.90;;
43793;SDS011;29414;44.798;20.366;2023-04-28T18:04:11;7.03;;;3.28;;
43793;SDS011;29414;44.798;20.366;2023-04-28T18:08:11;6.93;;;3.63;;
43793;SDS011;29414;44.798;20.366;2023-04-28T18:12:12;6.75;;;4.00;;
43793;SDS011;29414;44.798;20.366;2023-04-28T18:16:13;8.52;;;3.88;;
43793;SDS011;29414;44.798;20.366;2023-04-28T18:20:14;8.52;;;4.13;;
43793;SDS011;29414;44.798;20.366;2023-04-28T18:24:14;7.40;;;5.03;;
43793;SDS011;29414;44.798;20.366;2023-04-28T18:28:14;7.28;;;5.45;;
43793;SDS011;29414;44.798;20.366;2023-04-28T18:32:14;10.02;;;5.45;;
43793;SDS011;29414;44.798;20.366;2023-04-28T18:36:15;11.30;;;6.50;;
43793;SDS011;29414;44.798;20.366;2023-04-28T18:40:15;9.80;;;6.18;;
43793;SDS011;29414;44.798;20.366;2023-04-28T18:44:15;15.68;;;6.82;;
43793;SDS011;29414;44.798;20.366;2023-04-28T18:48:16;9.20;;;6.10;;
43793;SDS011;29414;44.798;20.366;2023-04-28T18:52:16;12.32;;;6.43;;
43793;SDS011;29414;44.798;20.366;2023-04-28T18:56:17;11.85;;;6.72;;
43793;SDS011;29414;44.798;20.366;2023-04-28T19:00:17;10.98;;;7.07;;
43793;SDS011;29414;44.798;20.366;2023-04-28T19:04:18;9.85;;;7.13;;
43793;SDS011;29414;44.798;20.366;2023-04-28T19:08:18;10.05;;;7.50;;
43793;SDS011;29414;44.798;20.366;2023-04-28T19:12:18;11.15;;;8.05;;
43793;SDS011;29414;44.798;20.366;2023-04-28T19:16:19;13.63;;;7.32;;
43793;SDS011;29414;44.798;20.366;2023-04-28T19:20:19;10.25;;;6.90;;
43793;SDS011;29414;44.798;20.366;2023-04-28T19:24:20;12.38;;;7.25;;
43793;SDS011;29414;44.798;20.366;2023-04-28T19:28:21;9.07;;;6.20;;
43793;SDS011;29414;44.798;20.366;2023-04-28T19:32:22;10.82;;;5.80;;
43793;SDS011;29414;44.798;20.366;2023-04-28T19:36:22;11.40;;;5.15;;
43793;SDS011;29414;44.798;20.366;2023-04-28T19:40:22;12.00;;;5.28;;
43793;SDS011;29414;44.798;20.366;2023-04-28T19:44:25;8.70;;;5.25;;
43793;SDS011;29414;44.798;20.366;2023-04-28T19:48:26;7.55;;;4.97;;
43793;SDS011;29414;44.798;20.366;2023-04-28T19:52:27;8.20;;;4.35;;
43793;SDS011;29414;44.798;20.366;2023-04-28T19:56:27;9.77;;;5.38;;
43793;SDS011;29414;44.798;20.366;2023-04-28T20:00:28;7.60;;;4.72;;
43793;SDS011;29414;44.798;20.366;2023-04-28T20:04:29;9.85;;;6.00;;
43793;SDS011;29414;44.798;20.366;2023-04-28T20:08:29;13.25;;;6.22;;
43793;SDS011;29414;44.798;20.366;2023-04-28T20:12:29;10.38;;;6.93;;
43793;SDS011;29414;44.798;20.366;2023-04-28T20:16:30;12.05;;;7.07;;
43793;SDS011;29414;44.798;20.366;2023-04-28T20:20:30;10.85;;;7.00;;
43793;SDS011;29414;44.798;20.366;2023-04-28T20:24:30;12.63;;;8.00;;
43793;SDS011;29414;44.798;20.366;2023-04-28T20:28:33;14.65;;;8.18;;
43793;SDS011;29414;44.798;20.366;2023-04-28T20:32:34;9.35;;;6.65;;
43793;SDS011;29414;44.798;20.366;2023-04-28T20:36:35;12.07;;;6.70;;
43793;SDS011;29414;44.798;20.366;2023-04-28T20:40:37;14.75;;;6.93;;
43793;SDS011;29414;44.798;20.366;2023-04-28T20:44:37;8.23;;;5.90;;
43793;SDS011;29414;44.798;20.366;2023-04-28T20:48:39;9.65;;;5.85;;
43793;SDS011;29414;44.798;20.366;2023-04-28T20:52:40;10.52;;;5.78;;
43793;SDS011;29414;44.798;20.366;2023-04-28T20:56:40;11.00;;;6.55;;
43793;SDS011;29414;44.798;20.366;2023-04-28T21:00:41;11.43;;;6.90;;
43793;SDS011;29414;44.798;20.366;2023-04-28T21:04:43;8.10;;;5.40;;
43793;SDS011;29414;44.798;20.366;2023-04-28T21:08:43;11.00;;;6.36;;
43793;SDS011;29414;44.798;20.366;2023-04-28T21:12:44;11.18;;;5.35;;
43793;SDS011;29414;44.798;20.366;2023-04-28T21:16:45;7.78;;;4.47;;
43793;SDS011;29414;44.798;20.366;2023-04-28T21:20:45;14.73;;;5.88;;
43793;SDS011;29414;44.798;20.366;2023-04-28T21:24:46;6.83;;;3.90;;
43793;SDS011;29414;44.798;20.366;2023-04-28T21:28:46;8.38;;;4.25;;
43793;SDS011;29414;44.798;20.366;2023-04-28T21:32:46;9.65;;;4.03;;
43793;SDS011;29414;44.798;20.366;2023-04-28T21:36:47;6.68;;;3.88;;
43793;SDS011;29414;44.798;20.366;2023-04-28T21:40:47;6.85;;;4.15;;
43793;SDS011;29414;44.798;20.366;2023-04-28T21:44:48;7.05;;;3.78;;
43793;SDS011;29414;44.798;20.366;2023-04-28T21:48:48;9.13;;;3.50;;
43793;SDS011;29414;44.798;20.366;2023-04-28T21:52:48;8.13;;;4.30;;
43793;SDS011;29414;44.798;20.366;2023-04-28T21:56:48;5.40;;;3.47;;
43793;SDS011;29414;44.798;20.366;2023-04-28T22:00:49;7.00;;;4.20;;
43793;SDS011;29414;44.798;20.366;2023-04-28T22:04:50;6.47;;;3.47;;
43793;SDS011;29414;44.798;20.366;2023-04-28T22:08:50;7.80;;;4.82;;
43793;SDS011;29414;44.798;20.366;2023-04-28T22:12:50;7.18;;;4.28;;
43793;SDS011;29414;44.798;20.366;2023-04-28T22:16:51;5.57;;;3.45;;
43793;SDS011;29414;44.798;20.366;2023-04-28T22:20:51;6.65;;;3.42;;
43793;SDS011;29414;44.798;20.366;2023-04-28T22:24:52;6.95;;;3.58;;
43793;SDS011;29414;44.798;20.366;2023-04-28T22:28:52;6.18;;;3.80;;
43793;SDS011;29414;44.798;20.366;2023-04-28T22:32:54;9.98;;;3.75;;
43793;SDS011;29414;44.798;20.366;2023-04-28T22:36:54;8.00;;;3.83;;
43793;SDS011;29414;44.798;20.366;2023-04-28T22:40:54;5.05;;;3.80;;
43793;SDS011;29414;44.798;20.366;2023-04-28T22:44:55;8.73;;;4.60;;
43793;SDS011;29414;44.798;20.366;2023-04-28T22:48:55;6.28;;;4.25;;
43793;SDS011;29414;44.798;20.366;2023-04-28T22:52:55;6.40;;;3.90;;
43793;SDS011;29414;44.798;20.366;2023-04-28T22:56:56;8.75;;;4.07;;
43793;SDS011;29414;44.798;20.366;2023-04-28T23:00:58;6.50;;;4.25;;
43793;SDS011;29414;44.798;20.366;2023-04-28T23:04:59;8.03;;;4.80;;
43793;SDS011;29414;44.798;20.366;2023-04-28T23:08:59;7.68;;;4.05;;
43793;SDS011;29414;44.798;20.366;2023-04-28T23:13:02;10.18;;;5.30;;
43793;SDS011;29414;44.798;20.366;2023-04-28T23:17:02;9.02;;;4.63;;
43793;SDS011;29414;44.798;20.366;2023-04-28T23:21:03;8.40;;;4.57;;
43793;SDS011;29414;44.798;20.366;2023-04-28T23:25:03;8.18;;;4.70;;
43793;SDS011;29414;44.798;20.366;2023-04-28T23:29:03;6.40;;;4.60;;
43793;SDS011;29414;44.798;20.366;2023-04-28T23:33:04;7.10;;;4.47;;
43793;SDS011;29414;44.798;20.366;2023-04-28T23:37:04;9.73;;;4.30;;
43793;SDS011;29414;44.798;20.366;2023-04-28T23:41:05;8.73;;;4.13;;
43793;SDS011;29414;44.798;20.366;2023-04-28T23:45:07;6.03;;;3.70;;
43793;SDS011;29414;44.798;20.366;2023-04-28T23:49:08;6.17;;;3.60;;